sensor_id;sensor_type;location;lat;lon;timestamp;pressure;altitude;pressure_sealevel;temperature;humidity
34500;BME280;20745;50.882;6.962;2023-02-22T00:01:40;100921.50;;;8.05;100.00
34500;BME280;20745;50.882;6.962;2023-02-22T00:04:16;100918.19;;;8.11;100.00
34500;BME280;20745;50.882;6.962;2023-02-22T00:06:47;100921.69;;;8.11;100.00
34500;BME280;20745;50.882;6.962;2023-02-22T00:09:14;100921.03;;;8.09;100.00
34500;BME280;20745;50.882;6.962;2023-02-22T00:11:47;100913.91;;;8.00;100.00
34500;BME280;20745;50.882;6.962;2023-02-22T00:14:14;100909.00;;;7.96;100.00
34500;BME280;20745;50.882;6.962;2023-02-22T00:16:45;100905.28;;;7.89;100.00
34500;BME280;20745;50.882;6.962;2023-02-22T00:19:12;100894.50;;;7.81;100.00
34500;BME280;20745;50.882;6.962;2023-02-22T00:21:38;100895.66;;;7.78;100.00
34500;BME280;20745;50.882;6.962;2023-02-22T00:24:05;100903.88;;;7.77;100.00
34500;BME280;20745;50.882;6.962;2023-02-22T00:26:53;100898.19;;;7.80;100.00
34500;BME280;20745;50.882;6.962;2023-02-22T00:29:22;100899.56;;;7.84;100.00
34500;BME280;20745;50.882;6.962;2023-02-22T00:31:49;100897.03;;;7.82;100.00
34500;BME280;20745;50.882;6.962;2023-02-22T00:34:16;100894.19;;;7.84;100.00
34500;BME280;20745;50.882;6.962;2023-02-22T00:36:47;100886.56;;;7.79;100.00
34500;BME280;20745;50.882;6.962;2023-02-22T00:39:14;100892.16;;;7.86;100.00
34500;BME280;20745;50.882;6.962;2023-02-22T00:41:41;100879.38;;;7.80;100.00
34500;BME280;20745;50.882;6.962;2023-02-22T00:44:07;100889.31;;;7.87;100.00
34500;BME280;20745;50.882;6.962;2023-02-22T00:46:34;100890.16;;;7.88;100.00
34500;BME280;20745;50.882;6.962;2023-02-22T00:49:00;100880.75;;;7.92;100.00
34500;BME280;20745;50.882;6.962;2023-02-22T00:51:27;100882.66;;;7.99;100.00
34500;BME280;20745;50.882;6.962;2023-02-22T00:53:54;100885.19;;;8.01;100.00
34500;BME280;20745;50.882;6.962;2023-02-22T00:56:20;100870.72;;;8.02;100.00
34500;BME280;20745;50.882;6.962;2023-02-22T00:58:47;100872.38;;;8.03;100.00
34500;BME280;20745;50.882;6.962;2023-02-22T01:01:13;100865.50;;;8.00;100.00
34500;BME280;20745;50.882;6.962;2023-02-22T01:03:40;100871.72;;;8.01;100.00
34500;BME280;20745;50.882;6.962;2023-02-22T01:06:07;100872.22;;;8.04;100.00
34500;BME280;20745;50.882;6.962;2023-02-22T01:08:34;100867.38;;;8.00;100.00
34500;BME280;20745;50.882;6.962;2023-02-22T01:11:00;100861.28;;;7.98;100.00
34500;BME280;20745;50.882;6.962;2023-02-22T01:13:27;100862.63;;;7.94;100.00
34500;BME280;20745;50.882;6.962;2023-02-22T01:15:54;100863.75;;;7.91;100.00
34500;BME280;20745;50.882;6.962;2023-02-22T01:18:22;100856.41;;;7.93;100.00
34500;BME280;20745;50.882;6.962;2023-02-22T01:20:48;100859.97;;;8.02;100.00
34500;BME280;20745;50.882;6.962;2023-02-22T01:23:15;100853.72;;;8.01;100.00
34500;BME280;20745;50.882;6.962;2023-02-22T01:25:42;100849.19;;;8.02;100.00
34500;BME280;20745;50.882;6.962;2023-02-22T01:28:09;100851.91;;;8.02;100.00
34500;BME280;20745;50.882;6.962;2023-02-22T01:30:36;100848.19;;;8.03;100.00
34500;BME280;20745;50.882;6.962;2023-02-22T01:33:05;100845.00;;;7.99;100.00
34500;BME280;20745;50.882;6.962;2023-02-22T01:35:33;100840.28;;;8.01;100.00
34500;BME280;20745;50.882;6.962;2023-02-22T01:38:00;100840.94;;;7.95;100.00
34500;BME280;20745;50.882;6.962;2023-02-22T01:40:36;100830.34;;;7.94;100.00
34500;BME280;20745;50.882;6.962;2023-02-22T01:43:23;100830.16;;;7.87;100.00
34500;BME280;20745;50.882;6.962;2023-02-22T01:50:59;100828.94;;;7.82;100.00
34500;BME280;20745;50.882;6.962;2023-02-22T01:53:51;100823.41;;;7.83;100.00
34500;BME280;20745;50.882;6.962;2023-02-22T01:56:20;100829.63;;;7.84;100.00
34500;BME280;20745;50.882;6.962;2023-02-22T01:58:50;100824.28;;;7.92;100.00
34500;BME280;20745;50.882;6.962;2023-02-22T02:01:20;100824.50;;;7.98;100.00
34500;BME280;20745;50.882;6.962;2023-02-22T02:03:49;100820.94;;;7.98;100.00
34500;BME280;20745;50.882;6.962;2023-02-22T02:06:17;100804.59;;;7.91;100.00
34500;BME280;20745;50.882;6.962;2023-02-22T02:09:00;100818.59;;;8.03;100.00
34500;BME280;20745;50.882;6.962;2023-02-22T02:11:27;100800.63;;;7.95;100.00
34500;BME280;20745;50.882;6.962;2023-02-22T02:13:56;100813.22;;;8.03;100.00
34500;BME280;20745;50.882;6.962;2023-02-22T02:16:26;100809.88;;;8.01;100.00
34500;BME280;20745;50.882;6.962;2023-02-22T02:18:55;100807.81;;;7.95;100.00
34500;BME280;20745;50.882;6.962;2023-02-22T02:21:38;100802.81;;;8.00;100.00
34500;BME280;20745;50.882;6.962;2023-02-22T02:24:38;100809.56;;;8.04;100.00
34500;BME280;20745;50.882;6.962;2023-02-22T02:27:44;100807.53;;;8.06;100.00
34500;BME280;20745;50.882;6.962;2023-02-22T02:30:36;100793.09;;;8.07;100.00
34500;BME280;20745;50.882;6.962;2023-02-22T02:33:18;100793.75;;;8.09;100.00
34500;BME280;20745;50.882;6.962;2023-02-22T02:35:48;100791.38;;;8.06;100.00
34500;BME280;20745;50.882;6.962;2023-02-22T02:39:19;100791.69;;;7.95;100.00
34500;BME280;20745;50.882;6.962;2023-02-22T02:41:28;100784.97;;;7.99;100.00
34500;BME280;20745;50.882;6.962;2023-02-22T02:44:02;100790.19;;;7.92;100.00
34500;BME280;20745;50.882;6.962;2023-02-22T02:49:15;100789.31;;;7.92;100.00
34500;BME280;20745;50.882;6.962;2023-02-22T02:51:47;100778.56;;;7.92;100.00
34500;BME280;20745;50.882;6.962;2023-02-22T02:54:15;100781.25;;;7.84;100.00
34500;BME280;20745;50.882;6.962;2023-02-22T02:56:44;100777.84;;;7.82;100.00
34500;BME280;20745;50.882;6.962;2023-02-22T02:59:29;100779.34;;;7.76;100.00
34500;BME280;20745;50.882;6.962;2023-02-22T03:07:54;100766.00;;;7.58;100.00
34500;BME280;20745;50.882;6.962;2023-02-22T03:10:41;100776.13;;;7.73;100.00
34500;BME280;20745;50.882;6.962;2023-02-22T03:13:18;100779.50;;;7.75;100.00
34500;BME280;20745;50.882;6.962;2023-02-22T03:16:14;100781.66;;;7.71;100.00
34500;BME280;20745;50.882;6.962;2023-02-22T03:19:10;100779.50;;;7.67;100.00
34500;BME280;20745;50.882;6.962;2023-02-22T03:21:49;100784.19;;;7.73;100.00
34500;BME280;20745;50.882;6.962;2023-02-22T03:24:21;100776.81;;;7.75;100.00
34500;BME280;20745;50.882;6.962;2023-02-22T03:27:03;100775.47;;;7.71;100.00
34500;BME280;20745;50.882;6.962;2023-02-22T03:29:38;100775.47;;;7.71;100.00
34500;BME280;20745;50.882;6.962;2023-02-22T03:32:09;100769.41;;;7.69;100.00
34500;BME280;20745;50.882;6.962;2023-02-22T03:34:41;100773.06;;;7.59;100.00
34500;BME280;20745;50.882;6.962;2023-02-22T03:37:16;100767.69;;;7.59;100.00
34500;BME280;20745;50.882;6.962;2023-02-22T03:39:45;100769.06;;;7.64;100.00
34500;BME280;20745;50.882;6.962;2023-02-22T03:42:16;100765.03;;;7.68;100.00
34500;BME280;20745;50.882;6.962;2023-02-22T03:44:44;100763.38;;;7.67;100.00
34500;BME280;20745;50.882;6.962;2023-02-22T03:47:16;100762.31;;;7.59;100.00
34500;BME280;20745;50.882;6.962;2023-02-22T03:50:18;100760.28;;;7.53;100.00
34500;BME280;20745;50.882;6.962;2023-02-22T03:52:36;100758.25;;;7.55;100.00
34500;BME280;20745;50.882;6.962;2023-02-22T03:55:03;100769.38;;;7.61;100.00
34500;BME280;20745;50.882;6.962;2023-02-22T03:57:43;100758.94;;;7.57;100.00
34500;BME280;20745;50.882;6.962;2023-02-22T04:00:15;100763.31;;;7.58;100.00
34500;BME280;20745;50.882;6.962;2023-02-22T04:02:43;100763.94;;;7.52;100.00
34500;BME280;20745;50.882;6.962;2023-02-22T04:05:10;100770.34;;;7.51;100.00
34500;BME280;20745;50.882;6.962;2023-02-22T04:07:40;100737.81;;;7.29;100.00
34500;BME280;20745;50.882;6.962;2023-02-22T04:10:06;100755.72;;;7.46;100.00
34500;BME280;20745;50.882;6.962;2023-02-22T04:12:36;100764.66;;;7.54;100.00
34500;BME280;20745;50.882;6.962;2023-02-22T04:15:04;100767.16;;;7.48;100.00
34500;BME280;20745;50.882;6.962;2023-02-22T04:17:31;100768.91;;;7.39;100.00
34500;BME280;20745;50.882;6.962;2023-02-22T04:19:58;100761.72;;;7.40;100.00
34500;BME280;20745;50.882;6.962;2023-02-22T04:22:24;100756.91;;;7.18;100.00
34500;BME280;20745;50.882;6.962;2023-02-22T04:24:50;100763.09;;;7.18;100.00
34500;BME280;20745;50.882;6.962;2023-02-22T04:27:19;100758.50;;;7.11;100.00
34500;BME280;20745;50.882;6.962;2023-02-22T04:29:45;100746.47;;;7.15;100.00
34500;BME280;20745;50.882;6.962;2023-02-22T04:32:12;100749.00;;;7.16;100.00
34500;BME280;20745;50.882;6.962;2023-02-22T04:34:38;100747.00;;;7.18;100.00
34500;BME280;20745;50.882;6.962;2023-02-22T04:37:05;100745.19;;;7.27;100.00
34500;BME280;20745;50.882;6.962;2023-02-22T04:39:33;100749.38;;;7.21;100.00
34500;BME280;20745;50.882;6.962;2023-02-22T04:41:59;100749.75;;;7.26;100.00
34500;BME280;20745;50.882;6.962;2023-02-22T04:44:26;100746.84;;;7.20;100.00
34500;BME280;20745;50.882;6.962;2023-02-22T04:46:52;100747.88;;;7.27;100.00
34500;BME280;20745;50.882;6.962;2023-02-22T04:49:19;100752.34;;;7.18;100.00
34500;BME280;20745;50.882;6.962;2023-02-22T04:51:45;100748.31;;;7.14;100.00
34500;BME280;20745;50.882;6.962;2023-02-22T04:54:12;100753.31;;;7.09;100.00
34500;BME280;20745;50.882;6.962;2023-02-22T04:56:39;100745.44;;;7.08;100.00
34500;BME280;20745;50.882;6.962;2023-02-22T04:59:05;100750.47;;;7.11;100.00
34500;BME280;20745;50.882;6.962;2023-02-22T05:01:36;100747.94;;;7.09;100.00
34500;BME280;20745;50.882;6.962;2023-02-22T05:04:04;100741.59;;;7.10;100.00
34500;BME280;20745;50.882;6.962;2023-02-22T05:06:30;100737.84;;;7.03;100.00
34500;BME280;20745;50.882;6.962;2023-02-22T05:08:57;100745.75;;;7.05;100.00
34500;BME280;20745;50.882;6.962;2023-02-22T05:11:23;100736.41;;;6.91;100.00
34500;BME280;20745;50.882;6.962;2023-02-22T05:13:50;100737.75;;;6.87;100.00
34500;BME280;20745;50.882;6.962;2023-02-22T05:16:16;100734.28;;;6.95;100.00
34500;BME280;20745;50.882;6.962;2023-02-22T05:18:43;100729.38;;;6.90;100.00
34500;BME280;20745;50.882;6.962;2023-02-22T05:21:10;100722.56;;;6.78;100.00
34500;BME280;20745;50.882;6.962;2023-02-22T05:23:39;100725.84;;;6.90;100.00
34500;BME280;20745;50.882;6.962;2023-02-22T05:26:05;100725.38;;;6.94;100.00
34500;BME280;20745;50.882;6.962;2023-02-22T05:28:32;100729.41;;;6.98;100.00
34500;BME280;20745;50.882;6.962;2023-02-22T05:30:58;100719.63;;;6.89;100.00
34500;BME280;20745;50.882;6.962;2023-02-22T05:33:25;100720.31;;;6.91;100.00
34500;BME280;20745;50.882;6.962;2023-02-22T05:35:51;100719.25;;;6.84;100.00
34500;BME280;20745;50.882;6.962;2023-02-22T05:38:18;100719.22;;;6.76;100.00
34500;BME280;20745;50.882;6.962;2023-02-22T05:40:45;100718.25;;;6.85;100.00
34500;BME280;20745;50.882;6.962;2023-02-22T05:43:11;100713.84;;;6.76;100.00
34500;BME280;20745;50.882;6.962;2023-02-22T05:45:38;100723.03;;;6.74;100.00
34500;BME280;20745;50.882;6.962;2023-02-22T05:48:04;100714.91;;;6.83;100.00
34500;BME280;20745;50.882;6.962;2023-02-22T05:50:31;100709.88;;;6.88;100.00
34500;BME280;20745;50.882;6.962;2023-02-22T05:52:58;100707.19;;;6.88;100.00
34500;BME280;20745;50.882;6.962;2023-02-22T05:55:25;100711.41;;;6.91;100.00
34500;BME280;20745;50.882;6.962;2023-02-22T05:57:51;100700.00;;;6.89;100.00
34500;BME280;20745;50.882;6.962;2023-02-22T06:00:29;100694.25;;;6.84;100.00
34500;BME280;20745;50.882;6.962;2023-02-22T06:05:24;100699.72;;;6.74;100.00
34500;BME280;20745;50.882;6.962;2023-02-22T06:07:51;100692.69;;;6.73;100.00
34500;BME280;20745;50.882;6.962;2023-02-22T06:10:17;100682.03;;;6.64;100.00
34500;BME280;20745;50.882;6.962;2023-02-22T06:12:46;100700.09;;;6.79;100.00
34500;BME280;20745;50.882;6.962;2023-02-22T06:15:14;100696.28;;;6.82;100.00
34500;BME280;20745;50.882;6.962;2023-02-22T06:17:41;100698.78;;;6.83;100.00
34500;BME280;20745;50.882;6.962;2023-02-22T06:20:13;100695.72;;;6.78;100.00
34500;BME280;20745;50.882;6.962;2023-02-22T06:22:40;100703.13;;;6.76;100.00
34500;BME280;20745;50.882;6.962;2023-02-22T06:25:08;100694.13;;;6.68;100.00
34500;BME280;20745;50.882;6.962;2023-02-22T06:27:35;100692.69;;;6.73;100.00
34500;BME280;20745;50.882;6.962;2023-02-22T06:30:02;100698.06;;;6.73;100.00
34500;BME280;20745;50.882;6.962;2023-02-22T06:32:28;100695.53;;;6.72;100.00
34500;BME280;20745;50.882;6.962;2023-02-22T06:34:55;100693.66;;;6.72;100.00
34500;BME280;20745;50.882;6.962;2023-02-22T06:37:22;100694.06;;;6.77;100.00
34500;BME280;20745;50.882;6.962;2023-02-22T06:39:48;100693.34;;;6.75;100.00
34500;BME280;20745;50.882;6.962;2023-02-22T06:42:15;100689.84;;;6.75;100.00
34500;BME280;20745;50.882;6.962;2023-02-22T06:44:41;100692.38;;;6.76;100.00
34500;BME280;20745;50.882;6.962;2023-02-22T06:47:08;100693.50;;;6.74;100.00
34500;BME280;20745;50.882;6.962;2023-02-22T06:49:34;100693.81;;;6.71;100.00
34500;BME280;20745;50.882;6.962;2023-02-22T06:52:04;100697.00;;;6.66;100.00
34500;BME280;20745;50.882;6.962;2023-02-22T06:54:31;100698.38;;;6.70;100.00
34500;BME280;20745;50.882;6.962;2023-02-22T06:56:57;100695.53;;;6.72;100.00
34500;BME280;20745;50.882;6.962;2023-02-22T06:59:24;100698.09;;;6.81;100.00
34500;BME280;20745;50.882;6.962;2023-02-22T07:01:50;100704.16;;;6.83;100.00
34500;BME280;20745;50.882;6.962;2023-02-22T07:04:17;100708.56;;;6.92;100.00
34500;BME280;20745;50.882;6.962;2023-02-22T07:06:45;100699.31;;;6.87;100.00
34500;BME280;20745;50.882;6.962;2023-02-22T07:09:13;100706.56;;;6.94;100.00
34500;BME280;20745;50.882;6.962;2023-02-22T07:11:40;100704.59;;;6.96;100.00
34500;BME280;20745;50.882;6.962;2023-02-22T07:14:06;100704.59;;;6.96;100.00
34500;BME280;20745;50.882;6.962;2023-02-22T07:16:33;100701.25;;;7.02;100.00
34500;BME280;20745;50.882;6.962;2023-02-22T07:19:00;100683.75;;;6.98;100.00
34500;BME280;20745;50.882;6.962;2023-02-22T07:21:29;100700.25;;;7.03;100.00
34500;BME280;20745;50.882;6.962;2023-02-22T07:23:57;100696.56;;;7.04;100.00
34500;BME280;20745;50.882;6.962;2023-02-22T07:26:25;100695.94;;;7.10;100.00
34500;BME280;20745;50.882;6.962;2023-02-22T07:28:53;100695.06;;;7.10;100.00
34500;BME280;20745;50.882;6.962;2023-02-22T07:31:19;100683.16;;;7.12;100.00
34500;BME280;20745;50.882;6.962;2023-02-22T07:33:46;100688.94;;;7.25;100.00
34500;BME280;20745;50.882;6.962;2023-02-22T07:36:13;100684.91;;;7.29;100.00
34500;BME280;20745;50.882;6.962;2023-02-22T07:38:44;100687.81;;;7.36;100.00
34500;BME280;20745;50.882;6.962;2023-02-22T07:41:11;100679.91;;;7.34;100.00
34500;BME280;20745;50.882;6.962;2023-02-22T07:43:40;100686.84;;;7.45;100.00
34500;BME280;20745;50.882;6.962;2023-02-22T07:46:06;100690.91;;;7.49;100.00
34500;BME280;20745;50.882;6.962;2023-02-22T07:48:33;100690.03;;;7.48;100.00
34500;BME280;20745;50.882;6.962;2023-02-22T07:51:00;100677.97;;;7.52;100.00
34500;BME280;20745;50.882;6.962;2023-02-22T07:53:29;100675.28;;;7.52;100.00
34500;BME280;20745;50.882;6.962;2023-02-22T07:55:57;100676.66;;;7.57;100.00
34500;BME280;20745;50.882;6.962;2023-02-22T07:58:26;100677.47;;;7.57;100.00
34500;BME280;20745;50.882;6.962;2023-02-22T08:00:53;100668.06;;;7.61;100.00
34500;BME280;20745;50.882;6.962;2023-02-22T08:03:22;100672.78;;;7.67;100.00
34500;BME280;20745;50.882;6.962;2023-02-22T08:05:52;100677.34;;;7.67;100.00
34500;BME280;20745;50.882;6.962;2023-02-22T08:08:22;100665.41;;;7.69;100.00
34500;BME280;20745;50.882;6.962;2023-02-22T08:10:49;100667.28;;;7.77;100.00
34500;BME280;20745;50.882;6.962;2023-02-22T08:13:17;100672.69;;;7.77;100.00
34500;BME280;20745;50.882;6.962;2023-02-22T08:15:44;100677.19;;;7.76;100.00
34500;BME280;20745;50.882;6.962;2023-02-22T08:18:15;100670.66;;;7.79;100.00
34500;BME280;20745;50.882;6.962;2023-02-22T08:20:43;100664.28;;;7.88;100.00
34500;BME280;20745;50.882;6.962;2023-02-22T08:23:11;100666.66;;;7.91;100.00
34500;BME280;20745;50.882;6.962;2023-02-22T08:25:38;100658.91;;;7.88;100.00
34500;BME280;20745;50.882;6.962;2023-02-22T08:28:07;100654.88;;;7.92;100.00
34500;BME280;20745;50.882;6.962;2023-02-22T08:30:34;100657.06;;;7.96;100.00
34500;BME280;20745;50.882;6.962;2023-02-22T08:33:03;100662.28;;;7.98;100.00
34500;BME280;20745;50.882;6.962;2023-02-22T08:35:31;100653.22;;;8.07;100.00
34500;BME280;20745;50.882;6.962;2023-02-22T08:38:00;100651.19;;;8.09;100.00
34500;BME280;20745;50.882;6.962;2023-02-22T08:40:29;100658.63;;;8.23;100.00
34500;BME280;20745;50.882;6.962;2023-02-22T08:42:56;100652.09;;;8.25;100.00
34500;BME280;20745;50.882;6.962;2023-02-22T08:45:23;100655.09;;;8.30;100.00
34500;BME280;20745;50.882;6.962;2023-02-22T08:47:50;100651.03;;;8.34;100.00
34500;BME280;20745;50.882;6.962;2023-02-22T08:50:20;100649.53;;;8.32;100.00
34500;BME280;20745;50.882;6.962;2023-02-22T08:52:52;100645.00;;;8.40;100.00
34500;BME280;20745;50.882;6.962;2023-02-22T08:55:23;100641.81;;;8.45;100.00
34500;BME280;20745;50.882;6.962;2023-02-22T08:57:50;100643.31;;;8.47;100.00
34500;BME280;20745;50.882;6.962;2023-02-22T09:00:18;100633.06;;;8.51;100.00
34500;BME280;20745;50.882;6.962;2023-02-22T09:02:45;100616.22;;;8.49;100.00
34500;BME280;20745;50.882;6.962;2023-02-22T09:05:12;100622.59;;;8.56;100.00
34500;BME280;20745;50.882;6.962;2023-02-22T09:07:42;100625.63;;;8.61;100.00
34500;BME280;20745;50.882;6.962;2023-02-22T09:10:14;100619.56;;;8.67;100.00
34500;BME280;20745;50.882;6.962;2023-02-22T09:12:41;100619.88;;;8.72;100.00
34500;BME280;20745;50.882;6.962;2023-02-22T09:15:09;100617.69;;;8.75;100.00
34500;BME280;20745;50.882;6.962;2023-02-22T09:17:36;100622.41;;;8.81;100.00
34500;BME280;20745;50.882;6.962;2023-02-22T09:20:05;100624.53;;;8.86;100.00
34500;BME280;20745;50.882;6.962;2023-02-22T09:22:31;100626.06;;;8.88;100.00
34500;BME280;20745;50.882;6.962;2023-02-22T09:24:58;100619.97;;;8.94;100.00
34500;BME280;20745;50.882;6.962;2023-02-22T09:27:33;100619.47;;;8.99;100.00
34500;BME280;20745;50.882;6.962;2023-02-22T09:29:59;100627.69;;;9.05;100.00
34500;BME280;20745;50.882;6.962;2023-02-22T09:32:26;100627.47;;;9.15;100.00
34500;BME280;20745;50.882;6.962;2023-02-22T09:34:54;100613.16;;;9.22;100.00
34500;BME280;20745;50.882;6.962;2023-02-22T09:37:21;100620.53;;;9.28;100.00
34500;BME280;20745;50.882;6.962;2023-02-22T09:39:47;100624.03;;;9.37;100.00
34500;BME280;20745;50.882;6.962;2023-02-22T09:42:26;100624.66;;;9.39;100.00
34500;BME280;20745;50.882;6.962;2023-02-22T09:45:02;100613.53;;;9.42;100.00
34500;BME280;20745;50.882;6.962;2023-02-22T09:47:40;100613.38;;;9.43;100.00
34500;BME280;20745;50.882;6.962;2023-02-22T09:50:12;100593.47;;;9.44;100.00
34500;BME280;20745;50.882;6.962;2023-02-22T09:53:04;100605.38;;;9.58;100.00
34500;BME280;20745;50.882;6.962;2023-02-22T09:55:36;100606.81;;;9.68;100.00
34500;BME280;20745;50.882;6.962;2023-02-22T09:58:41;100608.59;;;9.76;100.00
34500;BME280;20745;50.882;6.962;2023-02-22T10:06:29;100605.16;;;9.90;100.00
34500;BME280;20745;50.882;6.962;2023-02-22T10:09:00;100588.72;;;9.99;100.00
34500;BME280;20745;50.882;6.962;2023-02-22T10:11:49;100592.03;;;10.10;100.00
34500;BME280;20745;50.882;6.962;2023-02-22T10:14:45;100593.84;;;10.17;100.00
34500;BME280;20745;50.882;6.962;2023-02-22T10:22:56;100586.59;;;10.32;100.00
34500;BME280;20745;50.882;6.962;2023-02-22T10:25:27;100587.16;;;10.42;100.00
34500;BME280;20745;50.882;6.962;2023-02-22T10:28:05;100582.88;;;10.48;100.00
34500;BME280;20745;50.882;6.962;2023-02-22T10:30:46;100583.19;;;10.53;100.00
34500;BME280;20745;50.882;6.962;2023-02-22T10:33:22;100580.97;;;10.56;100.00
34500;BME280;20745;50.882;6.962;2023-02-22T10:35:50;100574.19;;;10.60;100.00
34500;BME280;20745;50.882;6.962;2023-02-22T10:38:24;100579.84;;;10.65;100.00
34500;BME280;20745;50.882;6.962;2023-02-22T10:40:56;100566.16;;;10.67;100.00
34500;BME280;20745;50.882;6.962;2023-02-22T10:43:25;100576.72;;;10.76;100.00
34500;BME280;20745;50.882;6.962;2023-02-22T10:45:54;100568.00;;;10.81;100.00
34500;BME280;20745;50.882;6.962;2023-02-22T10:48:24;100563.94;;;10.85;100.00
34500;BME280;20745;50.882;6.962;2023-02-22T10:50:52;100568.13;;;10.87;100.00
34500;BME280;20745;50.882;6.962;2023-02-22T10:53:20;100565.69;;;10.92;100.00
34500;BME280;20745;50.882;6.962;2023-02-22T11:01:25;100543.88;;;11.08;100.00
34500;BME280;20745;50.882;6.962;2023-02-22T11:04:12;100542.44;;;11.12;100.00
34500;BME280;20745;50.882;6.962;2023-02-22T11:06:42;100533.72;;;11.10;100.00
34500;BME280;20745;50.882;6.962;2023-02-22T11:09:14;100539.09;;;11.25;100.00
34500;BME280;20745;50.882;6.962;2023-02-22T11:11:43;100536.25;;;11.33;100.00
34500;BME280;20745;50.882;6.962;2023-02-22T11:14:12;100542.19;;;11.43;100.00
34500;BME280;20745;50.882;6.962;2023-02-22T11:16:52;100536.84;;;11.49;100.00
34500;BME280;20745;50.882;6.962;2023-02-22T11:19:25;100535.34;;;11.61;100.00
34500;BME280;20745;50.882;6.962;2023-02-22T11:21:56;100539.34;;;11.65;100.00
34500;BME280;20745;50.882;6.962;2023-02-22T11:24:24;100527.56;;;11.73;100.00
34500;BME280;20745;50.882;6.962;2023-02-22T11:27:03;100525.56;;;11.81;100.00
34500;BME280;20745;50.882;6.962;2023-02-22T11:29:34;100526.47;;;11.88;100.00
34500;BME280;20745;50.882;6.962;2023-02-22T11:32:14;100529.47;;;12.00;100.00
34500;BME280;20745;50.882;6.962;2023-02-22T11:34:48;100515.34;;;12.04;100.00
34500;BME280;20745;50.882;6.962;2023-02-22T11:37:34;100522.94;;;12.15;100.00
34500;BME280;20745;50.882;6.962;2023-02-22T11:40:19;100517.19;;;12.25;100.00
34500;BME280;20745;50.882;6.962;2023-02-22T11:42:49;100508.91;;;12.33;100.00
34500;BME280;20745;50.882;6.962;2023-02-22T11:45:30;100516.06;;;12.41;100.00
34500;BME280;20745;50.882;6.962;2023-02-22T11:48:00;100508.81;;;12.48;100.00
34500;BME280;20745;50.882;6.962;2023-02-22T11:50:39;100515.88;;;12.49;100.00
34500;BME280;20745;50.882;6.962;2023-02-22T11:53:28;100506.31;;;12.53;100.00
34500;BME280;20745;50.882;6.962;2023-02-22T11:56:21;100503.88;;;12.58;100.00
34500;BME280;20745;50.882;6.962;2023-02-22T12:11:04;100497.78;;;12.49;100.00
34500;BME280;20745;50.882;6.962;2023-02-22T12:16:35;100501.94;;;12.52;100.00
34500;BME280;20745;50.882;6.962;2023-02-22T12:21:33;100496.31;;;12.53;100.00
34500;BME280;20745;50.882;6.962;2023-02-22T12:24:09;100498.03;;;12.61;100.00
34500;BME280;20745;50.882;6.962;2023-02-22T12:26:41;100496.59;;;12.58;100.00
34500;BME280;20745;50.882;6.962;2023-02-22T12:29:27;100495.34;;;12.61;100.00
34500;BME280;20745;50.882;6.962;2023-02-22T12:32:02;100494.06;;;12.57;100.00
34500;BME280;20745;50.882;6.962;2023-02-22T12:34:36;100494.88;;;12.57;100.00
34500;BME280;20745;50.882;6.962;2023-02-22T12:37:24;100492.38;;;12.56;100.00
34500;BME280;20745;50.882;6.962;2023-02-22T12:40:09;100487.81;;;12.63;100.00
34500;BME280;20745;50.882;6.962;2023-02-22T12:42:47;100492.84;;;12.66;100.00
34500;BME280;20745;50.882;6.962;2023-02-22T12:51:53;100486.63;;;12.65;100.00
34500;BME280;20745;50.882;6.962;2023-02-22T12:54:32;100480.75;;;12.62;100.00
34500;BME280;20745;50.882;6.962;2023-02-22T12:57:30;100492.91;;;12.72;100.00
34500;BME280;20745;50.882;6.962;2023-02-22T13:00:06;100485.38;;;12.74;100.00
34500;BME280;20745;50.882;6.962;2023-02-22T13:02:41;100486.22;;;12.75;100.00
34500;BME280;20745;50.882;6.962;2023-02-22T13:05:14;100479.38;;;12.79;100.00
34500;BME280;20745;50.882;6.962;2023-02-22T13:10:39;100490.28;;;12.92;100.00
34500;BME280;20745;50.882;6.962;2023-02-22T13:13:19;100482.78;;;12.94;100.00
34500;BME280;20745;50.882;6.962;2023-02-22T13:21:27;100483.72;;;13.14;100.00
34500;BME280;20745;50.882;6.962;2023-02-22T13:24:00;100488.53;;;13.25;100.00
34500;BME280;20745;50.882;6.962;2023-02-22T13:26:43;100480.25;;;13.33;100.00
34500;BME280;20745;50.882;6.962;2023-02-22T13:29:18;100480.69;;;13.43;100.00
34500;BME280;20745;50.882;6.962;2023-02-22T13:33:23;100476.09;;;13.50;100.00
34500;BME280;20745;50.882;6.962;2023-02-22T13:43:33;100462.75;;;13.94;100.00
34500;BME280;20745;50.882;6.962;2023-02-22T13:51:45;100458.13;;;14.07;100.00
34500;BME280;20745;50.882;6.962;2023-02-22T13:54:14;100462.53;;;14.15;100.00
34500;BME280;20745;50.882;6.962;2023-02-22T13:56:47;100459.81;;;14.15;100.00
34500;BME280;20745;50.882;6.962;2023-02-22T13:59:33;100469.19;;;14.19;100.00
34500;BME280;20745;50.882;6.962;2023-02-22T14:02:04;100464.22;;;14.22;100.00
34500;BME280;20745;50.882;6.962;2023-02-22T14:04:41;100460.03;;;14.13;100.00
34500;BME280;20745;50.882;6.962;2023-02-22T14:09:53;100469.84;;;14.08;100.00
34500;BME280;20745;50.882;6.962;2023-02-22T14:15:20;100465.25;;;14.02;100.00
34500;BME280;20745;50.882;6.962;2023-02-22T14:18:01;100464.22;;;14.03;100.00
34500;BME280;20745;50.882;6.962;2023-02-22T14:20:34;100446.88;;;13.97;100.00
34500;BME280;20745;50.882;6.962;2023-02-22T14:31:16;100467.34;;;13.93;100.00
34500;BME280;20745;50.882;6.962;2023-02-22T14:36:46;100459.19;;;13.93;100.00
34500;BME280;20745;50.882;6.962;2023-02-22T14:45:13;100439.78;;;14.03;100.00
34500;BME280;20745;50.882;6.962;2023-02-22T14:47:44;100449.38;;;14.12;100.00
34500;BME280;20745;50.882;6.962;2023-02-22T14:50:25;100452.91;;;14.19;100.00
34500;BME280;20745;50.882;6.962;2023-02-22T14:53:13;100457.91;;;14.22;100.00